sensor_id;sensor_type;location;lat;lon;timestamp;temperature;humidity
11961;DHT22;6040;49.358;11.140;2022-08-19T00:00:48;20.90;99.90
11961;DHT22;6040;49.358;11.140;2022-08-19T00:03:16;20.90;99.90
11961;DHT22;6040;49.358;11.140;2022-08-19T00:05:43;20.90;99.90
11961;DHT22;6040;49.358;11.140;2022-08-19T00:08:09;20.90;99.90
11961;DHT22;6040;49.358;11.140;2022-08-19T00:10:36;20.90;99.90
11961;DHT22;6040;49.358;11.140;2022-08-19T00:13:03;20.90;99.90
11961;DHT22;6040;49.358;11.140;2022-08-19T00:15:30;20.90;99.90
11961;DHT22;6040;49.358;11.140;2022-08-19T00:17:58;21.00;99.90
11961;DHT22;6040;49.358;11.140;2022-08-19T00:20:25;21.00;99.90
11961;DHT22;6040;49.358;11.140;2022-08-19T00:22:52;21.00;99.90
11961;DHT22;6040;49.358;11.140;2022-08-19T00:25:19;21.00;99.90
11961;DHT22;6040;49.358;11.140;2022-08-19T00:27:46;21.10;99.90
11961;DHT22;6040;49.358;11.140;2022-08-19T00:30:14;21.10;99.90
11961;DHT22;6040;49.358;11.140;2022-08-19T00:32:41;21.10;99.90
11961;DHT22;6040;49.358;11.140;2022-08-19T00:35:10;21.10;99.90
11961;DHT22;6040;49.358;11.140;2022-08-19T00:37:37;21.10;99.90
11961;DHT22;6040;49.358;11.140;2022-08-19T00:40:10;21.00;99.90
11961;DHT22;6040;49.358;11.140;2022-08-19T00:42:37;21.00;99.90
11961;DHT22;6040;49.358;11.140;2022-08-19T00:45:11;21.00;99.90
11961;DHT22;6040;49.358;11.140;2022-08-19T00:47:38;21.00;99.90
11961;DHT22;6040;49.358;11.140;2022-08-19T00:50:06;21.00;99.90
11961;DHT22;6040;49.358;11.140;2022-08-19T00:52:39;20.90;99.90
11961;DHT22;6040;49.358;11.140;2022-08-19T00:55:13;20.90;99.90
11961;DHT22;6040;49.358;11.140;2022-08-19T00:57:43;21.00;99.90
11961;DHT22;6040;49.358;11.140;2022-08-19T01:00:13;21.00;99.90
11961;DHT22;6040;49.358;11.140;2022-08-19T01:02:41;21.00;99.90
11961;DHT22;6040;49.358;11.140;2022-08-19T01:05:11;21.00;99.90
11961;DHT22;6040;49.358;11.140;2022-08-19T01:07:41;21.00;99.90
11961;DHT22;6040;49.358;11.140;2022-08-19T01:10:12;21.00;99.90
11961;DHT22;6040;49.358;11.140;2022-08-19T01:12:40;21.00;99.90
11961;DHT22;6040;49.358;11.140;2022-08-19T01:15:10;21.00;99.90
11961;DHT22;6040;49.358;11.140;2022-08-19T01:17:39;21.10;99.90
11961;DHT22;6040;49.358;11.140;2022-08-19T01:20:10;21.00;99.90
11961;DHT22;6040;49.358;11.140;2022-08-19T01:22:43;21.10;99.90
11961;DHT22;6040;49.358;11.140;2022-08-19T01:25:11;21.10;99.90
11961;DHT22;6040;49.358;11.140;2022-08-19T01:27:39;21.10;99.90
11961;DHT22;6040;49.358;11.140;2022-08-19T01:30:07;21.10;99.90
11961;DHT22;6040;49.358;11.140;2022-08-19T01:32:34;21.10;99.90
11961;DHT22;6040;49.358;11.140;2022-08-19T01:35:02;21.10;99.90
11961;DHT22;6040;49.358;11.140;2022-08-19T01:37:30;21.10;99.90
11961;DHT22;6040;49.358;11.140;2022-08-19T01:39:58;21.10;99.90
11961;DHT22;6040;49.358;11.140;2022-08-19T01:42:25;21.10;99.90
11961;DHT22;6040;49.358;11.140;2022-08-19T01:44:52;21.00;99.90
11961;DHT22;6040;49.358;11.140;2022-08-19T01:47:19;21.00;99.90
11961;DHT22;6040;49.358;11.140;2022-08-19T01:49:46;21.00;99.90
11961;DHT22;6040;49.358;11.140;2022-08-19T01:52:12;21.10;99.90
11961;DHT22;6040;49.358;11.140;2022-08-19T01:54:39;21.10;99.90
11961;DHT22;6040;49.358;11.140;2022-08-19T01:57:10;21.10;99.90
11961;DHT22;6040;49.358;11.140;2022-08-19T01:59:40;21.10;99.90
11961;DHT22;6040;49.358;11.140;2022-08-19T02:02:07;21.00;99.90
11961;DHT22;6040;49.358;11.140;2022-08-19T02:04:35;21.00;99.90
11961;DHT22;6040;49.358;11.140;2022-08-19T02:07:03;21.00;99.90
11961;DHT22;6040;49.358;11.140;2022-08-19T02:09:30;21.00;99.90
11961;DHT22;6040;49.358;11.140;2022-08-19T02:11:57;21.00;99.90
11961;DHT22;6040;49.358;11.140;2022-08-19T02:14:25;21.00;99.90
11961;DHT22;6040;49.358;11.140;2022-08-19T02:16:52;21.00;99.90
11961;DHT22;6040;49.358;11.140;2022-08-19T02:19:19;21.00;99.90
11961;DHT22;6040;49.358;11.140;2022-08-19T02:21:46;20.90;99.90
11961;DHT22;6040;49.358;11.140;2022-08-19T02:24:13;20.90;99.90
11961;DHT22;6040;49.358;11.140;2022-08-19T02:26:40;20.90;99.90
11961;DHT22;6040;49.358;11.140;2022-08-19T02:29:07;20.90;99.90
11961;DHT22;6040;49.358;11.140;2022-08-19T02:31:35;20.90;99.90
11961;DHT22;6040;49.358;11.140;2022-08-19T02:34:02;20.90;99.90
11961;DHT22;6040;49.358;11.140;2022-08-19T02:36:29;20.90;99.90
11961;DHT22;6040;49.358;11.140;2022-08-19T02:38:56;20.90;99.90
11961;DHT22;6040;49.358;11.140;2022-08-19T02:41:24;21.00;99.90
11961;DHT22;6040;49.358;11.140;2022-08-19T02:43:52;21.00;99.90
11961;DHT22;6040;49.358;11.140;2022-08-19T02:46:22;20.90;99.90
11961;DHT22;6040;49.358;11.140;2022-08-19T02:48:53;20.90;99.90
11961;DHT22;6040;49.358;11.140;2022-08-19T02:51:22;20.90;99.90
11961;DHT22;6040;49.358;11.140;2022-08-19T02:53:50;20.90;99.90
11961;DHT22;6040;49.358;11.140;2022-08-19T02:56:17;20.90;99.90
11961;DHT22;6040;49.358;11.140;2022-08-19T02:58:44;20.90;99.90
11961;DHT22;6040;49.358;11.140;2022-08-19T03:01:18;20.90;99.90
11961;DHT22;6040;49.358;11.140;2022-08-19T03:03:46;20.90;99.90
11961;DHT22;6040;49.358;11.140;2022-08-19T03:06:15;20.90;99.90
11961;DHT22;6040;49.358;11.140;2022-08-19T03:08:44;20.90;99.90
11961;DHT22;6040;49.358;11.140;2022-08-19T03:11:15;20.80;99.90
11961;DHT22;6040;49.358;11.140;2022-08-19T03:13:42;20.80;99.90
11961;DHT22;6040;49.358;11.140;2022-08-19T03:16:10;20.80;99.90
11961;DHT22;6040;49.358;11.140;2022-08-19T03:18:38;20.80;99.90
11961;DHT22;6040;49.358;11.140;2022-08-19T03:21:05;20.80;99.90
11961;DHT22;6040;49.358;11.140;2022-08-19T03:23:34;20.80;99.90
11961;DHT22;6040;49.358;11.140;2022-08-19T03:26:04;20.80;99.90
11961;DHT22;6040;49.358;11.140;2022-08-19T03:28:32;20.80;99.90
11961;DHT22;6040;49.358;11.140;2022-08-19T03:31:03;20.70;99.90
11961;DHT22;6040;49.358;11.140;2022-08-19T03:33:32;20.80;99.90
11961;DHT22;6040;49.358;11.140;2022-08-19T03:36:06;20.70;99.90
11961;DHT22;6040;49.358;11.140;2022-08-19T03:38:36;20.70;99.90
11961;DHT22;6040;49.358;11.140;2022-08-19T03:41:05;20.70;99.90
11961;DHT22;6040;49.358;11.140;2022-08-19T03:43:34;20.70;99.90
11961;DHT22;6040;49.358;11.140;2022-08-19T03:46:03;20.70;99.90
11961;DHT22;6040;49.358;11.140;2022-08-19T03:48:31;20.70;99.90
11961;DHT22;6040;49.358;11.140;2022-08-19T03:50:59;20.70;99.90
11961;DHT22;6040;49.358;11.140;2022-08-19T03:53:26;20.70;99.90
11961;DHT22;6040;49.358;11.140;2022-08-19T03:55:56;20.70;99.90
11961;DHT22;6040;49.358;11.140;2022-08-19T03:58:23;20.60;99.90
11961;DHT22;6040;49.358;11.140;2022-08-19T04:00:50;20.60;99.90
11961;DHT22;6040;49.358;11.140;2022-08-19T04:03:17;20.60;99.90
11961;DHT22;6040;49.358;11.140;2022-08-19T04:05:45;20.70;99.90
11961;DHT22;6040;49.358;11.140;2022-08-19T04:08:14;20.70;99.90
11961;DHT22;6040;49.358;11.140;2022-08-19T04:10:46;20.60;99.90
11961;DHT22;6040;49.358;11.140;2022-08-19T04:13:16;20.60;99.90
11961;DHT22;6040;49.358;11.140;2022-08-19T04:15:45;20.60;99.90
11961;DHT22;6040;49.358;11.140;2022-08-19T04:18:12;20.60;99.90
11961;DHT22;6040;49.358;11.140;2022-08-19T04:20:41;20.60;99.90
11961;DHT22;6040;49.358;11.140;2022-08-19T04:23:08;20.60;99.90
11961;DHT22;6040;49.358;11.140;2022-08-19T04:25:37;20.60;99.90
11961;DHT22;6040;49.358;11.140;2022-08-19T04:28:04;20.60;99.90
11961;DHT22;6040;49.358;11.140;2022-08-19T04:30:37;20.60;99.90
11961;DHT22;6040;49.358;11.140;2022-08-19T04:33:04;20.60;99.90
11961;DHT22;6040;49.358;11.140;2022-08-19T04:35:35;20.60;99.90
11961;DHT22;6040;49.358;11.140;2022-08-19T04:38:03;20.60;99.90
11961;DHT22;6040;49.358;11.140;2022-08-19T04:40:30;20.60;99.90
11961;DHT22;6040;49.358;11.140;2022-08-19T04:43:14;20.50;99.90
11961;DHT22;6040;49.358;11.140;2022-08-19T04:45:42;20.60;99.90
11961;DHT22;6040;49.358;11.140;2022-08-19T04:48:10;20.50;99.90
11961;DHT22;6040;49.358;11.140;2022-08-19T04:50:40;20.50;99.90
11961;DHT22;6040;49.358;11.140;2022-08-19T04:53:07;20.50;99.90
11961;DHT22;6040;49.358;11.140;2022-08-19T04:55:34;20.50;99.90
11961;DHT22;6040;49.358;11.140;2022-08-19T04:58:01;20.40;99.90
11961;DHT22;6040;49.358;11.140;2022-08-19T05:00:29;20.50;99.90
11961;DHT22;6040;49.358;11.140;2022-08-19T05:02:57;20.50;99.90
11961;DHT22;6040;49.358;11.140;2022-08-19T05:05:24;20.40;99.90
11961;DHT22;6040;49.358;11.140;2022-08-19T05:07:51;20.40;99.90
11961;DHT22;6040;49.358;11.140;2022-08-19T05:10:18;20.40;99.90
11961;DHT22;6040;49.358;11.140;2022-08-19T05:12:45;20.40;99.90
11961;DHT22;6040;49.358;11.140;2022-08-19T05:15:12;20.40;99.90
11961;DHT22;6040;49.358;11.140;2022-08-19T05:17:39;20.40;99.90
11961;DHT22;6040;49.358;11.140;2022-08-19T05:20:29;20.40;99.90
11961;DHT22;6040;49.358;11.140;2022-08-19T05:23:13;20.40;99.90
11961;DHT22;6040;49.358;11.140;2022-08-19T05:25:41;20.40;99.90
11961;DHT22;6040;49.358;11.140;2022-08-19T05:28:08;20.50;99.90
11961;DHT22;6040;49.358;11.140;2022-08-19T05:30:35;20.50;99.90
11961;DHT22;6040;49.358;11.140;2022-08-19T05:33:02;20.50;99.90
11961;DHT22;6040;49.358;11.140;2022-08-19T05:35:30;20.40;99.90
11961;DHT22;6040;49.358;11.140;2022-08-19T05:37:57;20.40;99.90
11961;DHT22;6040;49.358;11.140;2022-08-19T05:40:24;20.50;99.90
11961;DHT22;6040;49.358;11.140;2022-08-19T05:42:51;20.50;99.90
11961;DHT22;6040;49.358;11.140;2022-08-19T05:45:18;20.60;99.90
11961;DHT22;6040;49.358;11.140;2022-08-19T05:47:47;20.60;99.90
11961;DHT22;6040;49.358;11.140;2022-08-19T05:50:14;20.60;99.90
11961;DHT22;6040;49.358;11.140;2022-08-19T05:52:44;20.70;99.90
11961;DHT22;6040;49.358;11.140;2022-08-19T05:55:11;20.70;99.90
11961;DHT22;6040;49.358;11.140;2022-08-19T05:57:38;20.70;99.90
11961;DHT22;6040;49.358;11.140;2022-08-19T06:00:06;20.80;99.90
11961;DHT22;6040;49.358;11.140;2022-08-19T06:02:35;20.80;99.90
11961;DHT22;6040;49.358;11.140;2022-08-19T06:05:03;20.90;99.90
11961;DHT22;6040;49.358;11.140;2022-08-19T06:07:32;20.90;99.90
11961;DHT22;6040;49.358;11.140;2022-08-19T06:10:00;20.90;99.90
11961;DHT22;6040;49.358;11.140;2022-08-19T06:12:27;21.00;99.90
11961;DHT22;6040;49.358;11.140;2022-08-19T06:14:59;21.00;99.90
11961;DHT22;6040;49.358;11.140;2022-08-19T06:17:26;21.10;99.90
11961;DHT22;6040;49.358;11.140;2022-08-19T06:19:53;21.10;99.90
11961;DHT22;6040;49.358;11.140;2022-08-19T06:22:20;21.20;99.90
11961;DHT22;6040;49.358;11.140;2022-08-19T06:24:46;21.30;99.90
11961;DHT22;6040;49.358;11.140;2022-08-19T06:27:19;21.30;99.90
11961;DHT22;6040;49.358;11.140;2022-08-19T06:29:46;21.30;99.90
11961;DHT22;6040;49.358;11.140;2022-08-19T06:32:15;21.40;99.90
11961;DHT22;6040;49.358;11.140;2022-08-19T06:34:43;21.40;99.90
11961;DHT22;6040;49.358;11.140;2022-08-19T06:37:11;21.50;99.90
11961;DHT22;6040;49.358;11.140;2022-08-19T06:39:40;21.50;99.90
11961;DHT22;6040;49.358;11.140;2022-08-19T06:42:07;21.50;99.90
11961;DHT22;6040;49.358;11.140;2022-08-19T06:44:39;21.60;99.90
11961;DHT22;6040;49.358;11.140;2022-08-19T06:47:08;21.60;99.90
11961;DHT22;6040;49.358;11.140;2022-08-19T06:49:35;21.70;99.90
11961;DHT22;6040;49.358;11.140;2022-08-19T06:52:04;21.70;99.90
11961;DHT22;6040;49.358;11.140;2022-08-19T06:54:31;21.80;99.90
11961;DHT22;6040;49.358;11.140;2022-08-19T06:57:00;21.80;99.90
11961;DHT22;6040;49.358;11.140;2022-08-19T06:59:28;21.70;99.90
11961;DHT22;6040;49.358;11.140;2022-08-19T07:02:03;21.70;99.90
11961;DHT22;6040;49.358;11.140;2022-08-19T07:04:32;21.60;99.90
11961;DHT22;6040;49.358;11.140;2022-08-19T07:07:00;21.60;99.90
11961;DHT22;6040;49.358;11.140;2022-08-19T07:09:28;21.60;99.90
11961;DHT22;6040;49.358;11.140;2022-08-19T07:11:56;21.60;99.90
11961;DHT22;6040;49.358;11.140;2022-08-19T07:14:25;21.50;99.90
11961;DHT22;6040;49.358;11.140;2022-08-19T07:16:54;21.50;99.90
11961;DHT22;6040;49.358;11.140;2022-08-19T07:19:24;21.50;99.90
11961;DHT22;6040;49.358;11.140;2022-08-19T07:21:53;21.50;99.90
11961;DHT22;6040;49.358;11.140;2022-08-19T07:24:22;21.50;99.90
11961;DHT22;6040;49.358;11.140;2022-08-19T07:26:51;21.50;99.90
11961;DHT22;6040;49.358;11.140;2022-08-19T07:29:19;21.50;99.90
11961;DHT22;6040;49.358;11.140;2022-08-19T07:31:48;21.50;99.90
11961;DHT22;6040;49.358;11.140;2022-08-19T07:34:16;21.60;99.90
11961;DHT22;6040;49.358;11.140;2022-08-19T07:36:45;21.60;99.90
11961;DHT22;6040;49.358;11.140;2022-08-19T07:39:15;21.80;99.90
11961;DHT22;6040;49.358;11.140;2022-08-19T07:41:43;21.70;99.90
11961;DHT22;6040;49.358;11.140;2022-08-19T07:44:10;21.80;99.90
11961;DHT22;6040;49.358;11.140;2022-08-19T07:46:42;21.80;99.90
11961;DHT22;6040;49.358;11.140;2022-08-19T07:49:10;21.80;99.90
11961;DHT22;6040;49.358;11.140;2022-08-19T07:51:47;21.80;99.90
11961;DHT22;6040;49.358;11.140;2022-08-19T07:54:14;21.80;99.90
11961;DHT22;6040;49.358;11.140;2022-08-19T07:56:41;21.80;99.90
11961;DHT22;6040;49.358;11.140;2022-08-19T07:59:08;21.80;99.90
11961;DHT22;6040;49.358;11.140;2022-08-19T08:01:35;21.80;99.90
11961;DHT22;6040;49.358;11.140;2022-08-19T08:04:02;21.80;99.90
11961;DHT22;6040;49.358;11.140;2022-08-19T08:06:48;21.90;99.90
11961;DHT22;6040;49.358;11.140;2022-08-19T08:09:35;21.90;99.90
11961;DHT22;6040;49.358;11.140;2022-08-19T08:12:06;22.00;99.90
11961;DHT22;6040;49.358;11.140;2022-08-19T08:14:36;22.00;99.90
11961;DHT22;6040;49.358;11.140;2022-08-19T08:17:05;22.00;99.90
11961;DHT22;6040;49.358;11.140;2022-08-19T08:19:32;22.00;99.90
11961;DHT22;6040;49.358;11.140;2022-08-19T08:22:01;22.10;99.90
11961;DHT22;6040;49.358;11.140;2022-08-19T08:24:30;22.10;99.90
11961;DHT22;6040;49.358;11.140;2022-08-19T08:26:58;22.10;99.90
11961;DHT22;6040;49.358;11.140;2022-08-19T08:29:28;22.10;99.90
11961;DHT22;6040;49.358;11.140;2022-08-19T08:31:56;22.10;99.90
11961;DHT22;6040;49.358;11.140;2022-08-19T08:34:24;22.20;99.90
11961;DHT22;6040;49.358;11.140;2022-08-19T08:36:51;22.30;99.90
11961;DHT22;6040;49.358;11.140;2022-08-19T08:39:20;22.30;99.90
11961;DHT22;6040;49.358;11.140;2022-08-19T08:41:53;22.20;99.90
11961;DHT22;6040;49.358;11.140;2022-08-19T08:44:23;22.20;99.90
11961;DHT22;6040;49.358;11.140;2022-08-19T08:46:57;22.10;99.90
11961;DHT22;6040;49.358;11.140;2022-08-19T08:49:31;22.00;99.90
11961;DHT22;6040;49.358;11.140;2022-08-19T08:52:04;22.00;99.90
11961;DHT22;6040;49.358;11.140;2022-08-19T08:54:39;22.00;99.90
11961;DHT22;6040;49.358;11.140;2022-08-19T08:57:11;22.00;99.90
11961;DHT22;6040;49.358;11.140;2022-08-19T08:59:40;22.00;99.90
11961;DHT22;6040;49.358;11.140;2022-08-19T09:02:09;22.10;99.90
11961;DHT22;6040;49.358;11.140;2022-08-19T09:04:36;22.10;99.90
11961;DHT22;6040;49.358;11.140;2022-08-19T09:07:22;22.20;99.90
11961;DHT22;6040;49.358;11.140;2022-08-19T09:09:58;22.20;99.90
11961;DHT22;6040;49.358;11.140;2022-08-19T09:12:34;22.40;99.90
11961;DHT22;6040;49.358;11.140;2022-08-19T09:15:06;22.60;99.90
11961;DHT22;6040;49.358;11.140;2022-08-19T09:17:34;22.70;99.90
11961;DHT22;6040;49.358;11.140;2022-08-19T09:20:18;22.70;99.90
11961;DHT22;6040;49.358;11.140;2022-08-19T09:22:45;22.80;99.90
11961;DHT22;6040;49.358;11.140;2022-08-19T09:25:18;22.90;99.90
11961;DHT22;6040;49.358;11.140;2022-08-19T09:27:47;23.00;99.90
11961;DHT22;6040;49.358;11.140;2022-08-19T09:30:16;23.10;99.90
11961;DHT22;6040;49.358;11.140;2022-08-19T09:32:44;23.10;99.90
11961;DHT22;6040;49.358;11.140;2022-08-19T09:35:12;23.20;99.90
11961;DHT22;6040;49.358;11.140;2022-08-19T09:37:39;23.20;99.90
11961;DHT22;6040;49.358;11.140;2022-08-19T09:40:07;23.10;99.90
11961;DHT22;6040;49.358;11.140;2022-08-19T09:42:36;23.10;99.90
11961;DHT22;6040;49.358;11.140;2022-08-19T09:45:03;23.00;99.90
11961;DHT22;6040;49.358;11.140;2022-08-19T09:47:30;23.00;99.90
11961;DHT22;6040;49.358;11.140;2022-08-19T09:49:57;23.00;99.90
11961;DHT22;6040;49.358;11.140;2022-08-19T09:52:24;23.00;99.90
11961;DHT22;6040;49.358;11.140;2022-08-19T09:54:52;23.00;99.90
11961;DHT22;6040;49.358;11.140;2022-08-19T09:57:19;23.00;99.90
11961;DHT22;6040;49.358;11.140;2022-08-19T09:59:48;23.00;99.90
11961;DHT22;6040;49.358;11.140;2022-08-19T10:02:14;23.00;99.90
11961;DHT22;6040;49.358;11.140;2022-08-19T10:04:41;22.90;99.90
11961;DHT22;6040;49.358;11.140;2022-08-19T10:07:26;22.80;99.90
11961;DHT22;6040;49.358;11.140;2022-08-19T10:09:53;22.80;99.90
11961;DHT22;6040;49.358;11.140;2022-08-19T10:12:20;22.70;99.90
11961;DHT22;6040;49.358;11.140;2022-08-19T10:14:49;22.60;99.90
11961;DHT22;6040;49.358;11.140;2022-08-19T10:17:17;22.60;99.90
11961;DHT22;6040;49.358;11.140;2022-08-19T10:19:44;22.50;99.90
11961;DHT22;6040;49.358;11.140;2022-08-19T10:22:11;22.40;99.90
11961;DHT22;6040;49.358;11.140;2022-08-19T10:24:39;22.40;99.90
11961;DHT22;6040;49.358;11.140;2022-08-19T10:27:06;22.40;99.90
11961;DHT22;6040;49.358;11.140;2022-08-19T10:29:35;22.40;99.90
11961;DHT22;6040;49.358;11.140;2022-08-19T10:32:05;22.40;99.90
11961;DHT22;6040;49.358;11.140;2022-08-19T10:34:34;22.40;99.90
11961;DHT22;6040;49.358;11.140;2022-08-19T10:37:03;22.40;99.90
11961;DHT22;6040;49.358;11.140;2022-08-19T10:39:33;22.30;99.90
11961;DHT22;6040;49.358;11.140;2022-08-19T10:42:04;22.30;99.90
11961;DHT22;6040;49.358;11.140;2022-08-19T10:44:32;22.20;99.90
11961;DHT22;6040;49.358;11.140;2022-08-19T10:47:03;22.30;99.90
11961;DHT22;6040;49.358;11.140;2022-08-19T10:49:30;22.30;99.90
11961;DHT22;6040;49.358;11.140;2022-08-19T10:51:58;22.40;99.90
11961;DHT22;6040;49.358;11.140;2022-08-19T10:54:42;22.40;99.90
11961;DHT22;6040;49.358;11.140;2022-08-19T10:57:30;22.30;99.90
11961;DHT22;6040;49.358;11.140;2022-08-19T10:59:57;22.20;99.90
11961;DHT22;6040;49.358;11.140;2022-08-19T11:02:25;22.20;99.90
11961;DHT22;6040;49.358;11.140;2022-08-19T11:04:52;22.10;99.90
11961;DHT22;6040;49.358;11.140;2022-08-19T11:07:19;22.10;99.90
11961;DHT22;6040;49.358;11.140;2022-08-19T11:09:46;22.00;99.90
11961;DHT22;6040;49.358;11.140;2022-08-19T11:12:13;22.00;99.90
11961;DHT22;6040;49.358;11.140;2022-08-19T11:14:40;22.00;99.90
11961;DHT22;6040;49.358;11.140;2022-08-19T11:17:07;22.00;99.90
11961;DHT22;6040;49.358;11.140;2022-08-19T11:19:37;22.00;99.90
11961;DHT22;6040;49.358;11.140;2022-08-19T11:22:07;22.00;99.90
11961;DHT22;6040;49.358;11.140;2022-08-19T11:24:35;22.00;99.90
11961;DHT22;6040;49.358;11.140;2022-08-19T11:27:05;22.10;99.90
11961;DHT22;6040;49.358;11.140;2022-08-19T11:29:33;22.10;99.90
11961;DHT22;6040;49.358;11.140;2022-08-19T11:32:03;22.10;99.90
11961;DHT22;6040;49.358;11.140;2022-08-19T11:34:31;22.10;99.90
11961;DHT22;6040;49.358;11.140;2022-08-19T11:36:59;22.10;99.90
11961;DHT22;6040;49.358;11.140;2022-08-19T11:39:30;22.10;99.90
11961;DHT22;6040;49.358;11.140;2022-08-19T11:41:58;22.00;99.90
11961;DHT22;6040;49.358;11.140;2022-08-19T11:44:25;22.00;99.90
11961;DHT22;6040;49.358;11.140;2022-08-19T11:46:55;21.90;99.90
11961;DHT22;6040;49.358;11.140;2022-08-19T11:49:23;21.90;99.90
11961;DHT22;6040;49.358;11.140;2022-08-19T11:51:49;21.80;99.90
11961;DHT22;6040;49.358;11.140;2022-08-19T11:54:18;21.80;99.90
11961;DHT22;6040;49.358;11.140;2022-08-19T11:56:45;21.80;99.90
11961;DHT22;6040;49.358;11.140;2022-08-19T11:59:14;21.80;99.90
11961;DHT22;6040;49.358;11.140;2022-08-19T12:01:41;21.80;99.90
11961;DHT22;6040;49.358;11.140;2022-08-19T12:04:09;21.70;99.90
11961;DHT22;6040;49.358;11.140;2022-08-19T12:06:38;21.70;99.90
11961;DHT22;6040;49.358;11.140;2022-08-19T12:09:08;21.70;99.90
11961;DHT22;6040;49.358;11.140;2022-08-19T12:11:38;21.70;99.90
11961;DHT22;6040;49.358;11.140;2022-08-19T12:14:06;21.60;99.90
11961;DHT22;6040;49.358;11.140;2022-08-19T12:16:35;21.60;99.90
11961;DHT22;6040;49.358;11.140;2022-08-19T12:19:04;21.50;99.90
11961;DHT22;6040;49.358;11.140;2022-08-19T12:21:33;21.50;99.90
11961;DHT22;6040;49.358;11.140;2022-08-19T12:24:01;21.50;99.90
11961;DHT22;6040;49.358;11.140;2022-08-19T12:26:29;21.50;99.90
11961;DHT22;6040;49.358;11.140;2022-08-19T12:28:59;21.50;99.90
11961;DHT22;6040;49.358;11.140;2022-08-19T12:31:26;21.60;99.90
11961;DHT22;6040;49.358;11.140;2022-08-19T12:33:53;21.60;99.90
11961;DHT22;6040;49.358;11.140;2022-08-19T12:36:20;21.60;99.90
11961;DHT22;6040;49.358;11.140;2022-08-19T12:38:48;21.60;99.90
11961;DHT22;6040;49.358;11.140;2022-08-19T12:41:16;21.50;99.90
11961;DHT22;6040;49.358;11.140;2022-08-19T12:43:44;21.50;99.90
11961;DHT22;6040;49.358;11.140;2022-08-19T12:46:12;21.50;99.90
11961;DHT22;6040;49.358;11.140;2022-08-19T12:48:39;21.50;99.90
11961;DHT22;6040;49.358;11.140;2022-08-19T12:51:10;21.50;99.90
11961;DHT22;6040;49.358;11.140;2022-08-19T12:53:38;21.50;99.90
11961;DHT22;6040;49.358;11.140;2022-08-19T12:56:06;24.10;99.90
11961;DHT22;6040;49.358;11.140;2022-08-19T12:58:33;21.60;99.90
11961;DHT22;6040;49.358;11.140;2022-08-19T13:01:07;21.60;99.90
11961;DHT22;6040;49.358;11.140;2022-08-19T13:03:35;21.70;99.90
11961;DHT22;6040;49.358;11.140;2022-08-19T13:06:03;21.70;99.90
11961;DHT22;6040;49.358;11.140;2022-08-19T13:08:30;21.70;99.90
11961;DHT22;6040;49.358;11.140;2022-08-19T13:10:57;21.80;99.90
11961;DHT22;6040;49.358;11.140;2022-08-19T13:13:25;21.80;99.90
11961;DHT22;6040;49.358;11.140;2022-08-19T13:15:52;21.80;99.90
11961;DHT22;6040;49.358;11.140;2022-08-19T13:18:19;21.80;99.90
11961;DHT22;6040;49.358;11.140;2022-08-19T13:20:47;21.90;99.90
11961;DHT22;6040;49.358;11.140;2022-08-19T13:23:14;21.90;99.90
11961;DHT22;6040;49.358;11.140;2022-08-19T13:25:41;21.90;99.90
11961;DHT22;6040;49.358;11.140;2022-08-19T13:28:07;22.00;99.90
11961;DHT22;6040;49.358;11.140;2022-08-19T13:30:34;22.00;99.90
11961;DHT22;6040;49.358;11.140;2022-08-19T13:33:19;22.00;99.90
11961;DHT22;6040;49.358;11.140;2022-08-19T13:35:50;21.90;99.90
11961;DHT22;6040;49.358;11.140;2022-08-19T13:38:23;21.90;99.90
11961;DHT22;6040;49.358;11.140;2022-08-19T13:40:52;21.80;99.90
11961;DHT22;6040;49.358;11.140;2022-08-19T13:43:19;22.80;99.90
11961;DHT22;6040;49.358;11.140;2022-08-19T13:45:47;21.70;99.90
11961;DHT22;6040;49.358;11.140;2022-08-19T13:48:14;21.70;99.90
11961;DHT22;6040;49.358;11.140;2022-08-19T13:50:44;21.70;99.90
11961;DHT22;6040;49.358;11.140;2022-08-19T13:53:14;21.70;99.90
11961;DHT22;6040;49.358;11.140;2022-08-19T13:55:42;21.70;99.90
11961;DHT22;6040;49.358;11.140;2022-08-19T13:58:11;21.70;99.90
11961;DHT22;6040;49.358;11.140;2022-08-19T14:00:40;21.70;99.90
11961;DHT22;6040;49.358;11.140;2022-08-19T14:03:08;21.70;99.90
11961;DHT22;6040;49.358;11.140;2022-08-19T14:05:35;21.60;99.90
11961;DHT22;6040;49.358;11.140;2022-08-19T14:08:03;21.60;99.90
11961;DHT22;6040;49.358;11.140;2022-08-19T14:10:31;21.50;99.90
11961;DHT22;6040;49.358;11.140;2022-08-19T14:13:02;21.50;99.90
11961;DHT22;6040;49.358;11.140;2022-08-19T14:15:29;21.50;99.90
11961;DHT22;6040;49.358;11.140;2022-08-19T14:17:57;21.50;99.90
11961;DHT22;6040;49.358;11.140;2022-08-19T14:20:24;21.40;99.90
11961;DHT22;6040;49.358;11.140;2022-08-19T14:22:51;21.40;99.90
11961;DHT22;6040;49.358;11.140;2022-08-19T14:25:20;21.40;99.90
11961;DHT22;6040;49.358;11.140;2022-08-19T14:27:49;21.40;99.90
11961;DHT22;6040;49.358;11.140;2022-08-19T14:30:18;21.40;99.90
11961;DHT22;6040;49.358;11.140;2022-08-19T14:32:45;21.50;99.90
11961;DHT22;6040;49.358;11.140;2022-08-19T14:35:13;21.50;99.90
11961;DHT22;6040;49.358;11.140;2022-08-19T14:37:41;21.40;99.90
11961;DHT22;6040;49.358;11.140;2022-08-19T14:40:09;21.40;99.90
11961;DHT22;6040;49.358;11.140;2022-08-19T14:42:37;21.30;99.90
11961;DHT22;6040;49.358;11.140;2022-08-19T14:45:06;21.30;99.90
11961;DHT22;6040;49.358;11.140;2022-08-19T14:47:33;21.20;99.90
11961;DHT22;6040;49.358;11.140;2022-08-19T14:50:00;21.20;99.90
11961;DHT22;6040;49.358;11.140;2022-08-19T14:52:28;21.20;99.90
11961;DHT22;6040;49.358;11.140;2022-08-19T14:54:55;21.10;99.90
11961;DHT22;6040;49.358;11.140;2022-08-19T14:57:22;21.10;99.90
11961;DHT22;6040;49.358;11.140;2022-08-19T14:59:49;21.00;99.90
11961;DHT22;6040;49.358;11.140;2022-08-19T15:02:17;21.00;99.90
11961;DHT22;6040;49.358;11.140;2022-08-19T15:04:45;20.90;99.90
11961;DHT22;6040;49.358;11.140;2022-08-19T15:07:12;20.90;99.90
11961;DHT22;6040;49.358;11.140;2022-08-19T15:09:39;20.90;99.90
11961;DHT22;6040;49.358;11.140;2022-08-19T15:12:08;20.80;99.90
11961;DHT22;6040;49.358;11.140;2022-08-19T15:14:36;20.80;99.90
11961;DHT22;6040;49.358;11.140;2022-08-19T15:17:04;20.80;99.90
11961;DHT22;6040;49.358;11.140;2022-08-19T15:19:32;20.70;99.90
11961;DHT22;6040;49.358;11.140;2022-08-19T15:22:01;20.70;99.90
11961;DHT22;6040;49.358;11.140;2022-08-19T15:24:28;20.60;99.90
11961;DHT22;6040;49.358;11.140;2022-08-19T15:26:55;20.60;99.90
11961;DHT22;6040;49.358;11.140;2022-08-19T15:29:22;20.50;99.90
11961;DHT22;6040;49.358;11.140;2022-08-19T15:31:51;20.50;99.90
11961;DHT22;6040;49.358;11.140;2022-08-19T15:34:20;20.50;99.90
11961;DHT22;6040;49.358;11.140;2022-08-19T15:36:49;20.40;99.90
11961;DHT22;6040;49.358;11.140;2022-08-19T15:39:15;20.40;99.90